createdAt,value
2022-12-01T00:01:30.137Z,25.93
2022-12-01T00:03:57.984Z,27.07
2022-12-01T00:06:25.852Z,27.30
2022-12-01T00:09:17.963Z,23.37
2022-12-01T00:11:47.453Z,27.20
2022-12-01T00:14:16.315Z,26.77
2022-12-01T00:16:44.817Z,28.93
2022-12-01T00:19:12.912Z,28.57
2022-12-01T00:21:40.817Z,26.90
2022-12-01T00:24:11.179Z,25.77
2022-12-01T00:26:39.846Z,25.97
2022-12-01T00:29:07.692Z,27.17
2022-12-01T00:31:35.756Z,26.23
2022-12-01T00:34:06.916Z,23.77
2022-12-01T00:36:38.791Z,28.77
2022-12-01T00:39:06.640Z,26.37
2022-12-01T00:41:35.827Z,25.90
2022-12-01T00:44:03.656Z,27.60
2022-12-01T00:46:31.502Z,24.93
2022-12-01T00:48:59.406Z,26.57
2022-12-01T00:51:27.382Z,23.23
2022-12-01T00:53:55.220Z,26.97
2022-12-01T00:56:23.065Z,26.37
2022-12-01T00:58:52.245Z,24.50
2022-12-01T01:01:20.369Z,22.40
2022-12-01T01:03:48.401Z,28.30
2022-12-01T01:06:16.552Z,25.93
2022-12-01T01:08:44.457Z,27.47
2022-12-01T01:11:12.318Z,25.00
2022-12-01T01:13:40.147Z,29.80
2022-12-01T01:16:15.155Z,25.63
2022-12-01T01:18:43.082Z,25.40
2022-12-01T01:21:14.118Z,27.07
2022-12-01T01:23:42.325Z,26.93
2022-12-01T01:26:13.501Z,24.90
2022-12-01T01:28:42.053Z,26.70
2022-12-01T01:31:13.258Z,26.67
2022-12-01T01:33:41.295Z,23.47
2022-12-01T01:36:10.018Z,24.67
2022-12-01T01:38:37.999Z,25.60
2022-12-01T01:41:07.280Z,25.33
2022-12-01T01:43:44.403Z,23.77
2022-12-01T01:46:15.402Z,24.17
2022-12-01T01:48:47.835Z,24.37
2022-12-01T01:51:18.487Z,24.27
2022-12-01T01:53:47.654Z,21.43
2022-12-01T01:56:15.463Z,26.87
2022-12-01T01:58:43.476Z,23.90
2022-12-01T02:01:13.478Z,24.07
2022-12-01T02:03:42.511Z,22.90
2022-12-01T02:06:11.106Z,23.30
2022-12-01T02:08:39.152Z,23.93
2022-12-01T02:11:26.236Z,22.13
2022-12-01T02:14:05.315Z,20.77
2022-12-01T02:16:45.063Z,24.20
2022-12-01T02:19:38.368Z,19.83
2022-12-01T02:22:19.134Z,18.10
2022-12-01T02:25:09.174Z,18.13
2022-12-01T02:27:52.407Z,18.23
2022-12-01T02:30:32.294Z,20.17
2022-12-01T02:33:07.494Z,18.57
2022-12-01T02:35:44.620Z,17.17
2022-12-01T02:38:19.175Z,16.23
2022-12-01T02:40:52.493Z,18.63
2022-12-01T02:43:33.009Z,20.27
2022-12-01T02:46:10.297Z,19.13
2022-12-01T02:48:40.665Z,20.37
2022-12-01T02:51:13.273Z,22.53
2022-12-01T02:53:41.167Z,14.97
2022-12-01T02:56:12.532Z,19.63
2022-12-01T02:58:40.685Z,18.67
2022-12-01T03:01:19.803Z,20.73
2022-12-01T03:04:00.502Z,22.43
2022-12-01T03:06:37.233Z,20.03
2022-12-01T03:09:14.791Z,19.43
2022-12-01T03:11:49.546Z,18.77
2022-12-01T03:14:29.281Z,22.73
2022-12-01T03:17:02.331Z,23.47
2022-12-01T03:19:37.130Z,20.67
2022-12-01T03:22:11.355Z,19.83
2022-12-01T03:24:41.229Z,19.60
2022-12-01T03:27:12.256Z,21.03
2022-12-01T03:29:44.396Z,18.70
2022-12-01T03:32:19.368Z,21.67
2022-12-01T03:34:50.881Z,18.57
2022-12-01T03:37:25.722Z,20.77
2022-12-01T03:40:00.229Z,18.60
2022-12-01T03:42:31.467Z,18.53
2022-12-01T03:45:01.911Z,17.90
2022-12-01T03:47:35.612Z,22.37
2022-12-01T03:50:05.211Z,20.60
2022-12-01T03:52:41.980Z,21.17
2022-12-01T03:55:14.088Z,19.80
2022-12-01T03:57:46.526Z,19.87
2022-12-01T04:00:16.890Z,19.63
2022-12-01T04:02:47.086Z,20.20
2022-12-01T04:05:15.198Z,21.10
2022-12-01T04:07:43.058Z,19.40
2022-12-01T04:10:11.140Z,23.10
2022-12-01T04:12:37.983Z,24.13
2022-12-01T04:15:09.026Z,21.13
2022-12-01T04:17:37.790Z,20.27
2022-12-01T04:20:08.855Z,22.40
2022-12-01T04:22:36.687Z,18.50
2022-12-01T04:25:05.829Z,21.70
2022-12-01T04:27:34.399Z,15.40
2022-12-01T04:30:02.285Z,19.73
2022-12-01T04:32:30.125Z,22.20
2022-12-01T04:34:57.963Z,20.17
2022-12-01T04:37:27.128Z,24.20
2022-12-01T04:39:54.937Z,23.40
2022-12-01T04:42:22.738Z,26.80
2022-12-01T04:44:50.542Z,20.53
2022-12-01T04:47:18.396Z,22.23
2022-12-01T04:49:46.340Z,19.07
2022-12-01T04:52:14.808Z,15.90
2022-12-01T04:54:44.176Z,23.33
2022-12-01T04:57:12.022Z,21.73
2022-12-01T04:59:39.894Z,22.83
2022-12-01T05:02:08.061Z,22.60
2022-12-01T05:04:38.660Z,21.30
2022-12-01T05:07:06.552Z,22.10
2022-12-01T05:09:34.371Z,25.97
2022-12-01T05:12:03.577Z,19.87
2022-12-01T05:14:31.447Z,23.53
2022-12-01T05:17:00.463Z,26.67
2022-12-01T05:19:45.797Z,28.27
2022-12-01T05:22:13.679Z,25.77
2022-12-01T05:24:41.503Z,25.03
2022-12-01T05:27:10.633Z,21.00
2022-12-01T05:29:38.445Z,26.83
2022-12-01T05:32:07.139Z,24.00
2022-12-01T05:34:35.032Z,26.97
2022-12-01T05:37:02.921Z,28.10
2022-12-01T05:39:30.783Z,28.93
2022-12-01T05:41:58.791Z,28.40
2022-12-01T05:44:27.982Z,27.63
2022-12-01T05:46:55.800Z,24.87
2022-12-01T05:49:23.638Z,26.20
2022-12-01T05:51:51.455Z,27.60
2022-12-01T05:54:19.283Z,28.57
2022-12-01T05:56:47.106Z,28.03
2022-12-01T05:59:14.920Z,29.83
2022-12-01T06:01:44.110Z,27.03
2022-12-01T06:04:12.013Z,28.30
2022-12-01T06:06:39.825Z,29.43
2022-12-01T06:09:08.401Z,28.40
2022-12-01T06:11:36.224Z,24.63
2022-12-01T06:14:04.086Z,26.73
2022-12-01T06:16:31.936Z,24.57
2022-12-01T06:19:01.236Z,28.30
2022-12-01T06:21:29.040Z,28.10
2022-12-01T06:23:56.864Z,30.00
2022-12-01T06:26:24.668Z,27.13
2022-12-01T06:28:52.498Z,28.07
2022-12-01T06:31:20.558Z,26.77
2022-12-01T06:33:48.405Z,25.00
2022-12-01T06:36:17.539Z,31.20
2022-12-01T06:38:45.462Z,32.43
2022-12-01T06:41:13.308Z,33.93
2022-12-01T06:43:41.112Z,31.87
2022-12-01T06:46:08.972Z,30.47
2022-12-01T06:48:36.872Z,31.40
2022-12-01T06:51:04.846Z,28.80
2022-12-01T06:53:34.022Z,29.83
2022-12-01T06:56:02.363Z,35.10
2022-12-01T06:58:30.527Z,32.47
2022-12-01T07:00:59.537Z,34.30
2022-12-01T07:03:27.725Z,34.03
2022-12-01T07:05:59.655Z,33.17
2022-12-01T07:08:27.652Z,30.70
2022-12-01T07:11:01.629Z,31.37
2022-12-01T07:13:33.340Z,30.13
2022-12-01T07:16:02.998Z,29.97
2022-12-01T07:18:31.177Z,32.83
2022-12-01T07:21:01.184Z,32.53
2022-12-01T07:23:29.399Z,32.50
2022-12-01T07:26:02.866Z,29.87
2022-12-01T07:28:31.153Z,35.50
2022-12-01T07:31:03.891Z,33.03
2022-12-01T07:33:32.100Z,35.77
2022-12-01T07:36:00.359Z,30.00
2022-12-01T07:38:28.926Z,34.27
2022-12-01T07:40:56.830Z,35.37
2022-12-01T07:43:25.977Z,37.23
2022-12-01T07:45:53.870Z,31.70
2022-12-01T07:48:21.724Z,32.50
2022-12-01T07:50:49.539Z,35.83
2022-12-01T07:53:17.346Z,35.17
2022-12-01T07:55:49.516Z,28.57
2022-12-01T07:58:17.371Z,29.77
2022-12-01T08:00:46.541Z,30.00
2022-12-01T08:03:14.474Z,29.60
2022-12-01T08:05:42.386Z,33.20
2022-12-01T08:08:10.305Z,30.10
2022-12-01T08:10:38.372Z,34.00
2022-12-01T08:13:06.294Z,29.67
2022-12-01T08:15:34.122Z,33.90
2022-12-01T08:18:03.797Z,28.63
2022-12-01T08:20:31.734Z,35.87
2022-12-01T08:23:02.376Z,31.60
2022-12-01T08:25:30.877Z,30.70
2022-12-01T08:27:58.697Z,31.10
2022-12-01T08:30:26.508Z,26.93
2022-12-01T08:32:55.167Z,31.67
2022-12-01T08:35:24.671Z,29.17
2022-12-01T08:37:53.482Z,23.47
2022-12-01T08:40:22.082Z,36.20
2022-12-01T08:42:49.964Z,33.70
2022-12-01T08:45:17.808Z,31.47
2022-12-01T08:47:45.623Z,31.60
2022-12-01T08:50:13.490Z,29.60
2022-12-01T08:52:42.903Z,30.27
2022-12-01T08:55:10.943Z,28.70
2022-12-01T08:57:39.819Z,33.13
2022-12-01T09:00:08.905Z,26.50
2022-12-01T09:02:36.835Z,27.83
2022-12-01T09:05:05.115Z,33.47
2022-12-01T09:07:34.078Z,29.53
2022-12-01T09:10:03.275Z,35.87
2022-12-01T09:12:31.152Z,29.37
2022-12-01T09:14:58.950Z,30.47
2022-12-01T09:17:26.821Z,33.27
2022-12-01T09:19:54.648Z,28.43
2022-12-01T09:22:22.496Z,33.60
2022-12-01T09:24:50.304Z,30.57
2022-12-01T09:27:19.476Z,27.67
2022-12-01T09:29:47.408Z,31.03
2022-12-01T09:32:15.426Z,35.83
2022-12-01T09:34:43.238Z,32.10
2022-12-01T09:37:11.042Z,28.87
2022-12-01T09:39:38.857Z,30.03
2022-12-01T09:42:12.846Z,28.70
2022-12-01T09:44:47.560Z,32.27
2022-12-01T09:47:21.630Z,28.00
2022-12-01T09:49:56.527Z,29.27
2022-12-01T09:52:27.271Z,33.83
2022-12-01T09:54:56.259Z,29.23
2022-12-01T09:57:31.071Z,33.37
2022-12-01T10:00:03.347Z,28.73
2022-12-01T10:02:37.112Z,28.17
2022-12-01T10:05:11.856Z,30.13
2022-12-01T10:07:46.316Z,29.57
2022-12-01T10:10:16.551Z,32.87
2022-12-01T10:12:47.581Z,26.20
2022-12-01T10:15:25.754Z,31.80
2022-12-01T10:18:06.466Z,31.70
2022-12-01T10:20:42.182Z,26.63
2022-12-01T10:23:22.375Z,28.43
2022-12-01T10:25:57.689Z,27.33
2022-12-01T10:28:51.525Z,28.17
2022-12-01T10:31:23.855Z,27.87
2022-12-01T10:34:00.531Z,25.20
2022-12-01T10:36:29.596Z,25.67
2022-12-01T10:38:57.645Z,29.00
2022-12-01T10:41:28.185Z,30.00
2022-12-01T10:44:00.856Z,29.70
2022-12-01T10:46:36.370Z,28.33
2022-12-01T10:49:10.514Z,42.33
2022-12-01T10:51:51.219Z,39.17
2022-12-01T10:54:19.720Z,38.43
2022-12-01T10:56:49.716Z,26.60
2022-12-01T10:59:28.246Z,27.83
2022-12-01T11:01:58.787Z,29.73
2022-12-01T11:04:45.894Z,39.13
2022-12-01T11:07:20.268Z,36.37
2022-12-01T11:09:57.998Z,33.70
2022-12-01T11:12:26.556Z,44.40
2022-12-01T11:14:56.446Z,37.77
2022-12-01T11:17:31.578Z,21.43
2022-12-01T11:20:00.051Z,29.97
2022-12-01T11:22:31.746Z,28.03
2022-12-01T11:25:02.443Z,29.53
2022-12-01T11:27:33.590Z,30.70
2022-12-01T11:30:04.815Z,34.67
2022-12-01T11:32:37.220Z,28.10
2022-12-01T11:35:15.310Z,28.23
2022-12-01T11:38:13.358Z,27.40
2022-12-01T11:40:48.529Z,26.27
2022-12-01T11:43:25.194Z,27.77
2022-12-01T11:45:53.826Z,27.37
2022-12-01T11:48:26.882Z,29.47
2022-12-01T11:51:07.225Z,28.67
2022-12-01T11:53:37.334Z,29.07
2022-12-01T11:56:17.740Z,28.80
2022-12-01T11:58:47.496Z,25.63
2022-12-01T12:01:28.263Z,26.87
2022-12-01T12:04:07.063Z,26.43
2022-12-01T12:06:44.134Z,24.27
2022-12-01T12:09:28.451Z,29.83
2022-12-01T12:12:08.257Z,35.63
2022-12-01T12:14:53.074Z,29.90
2022-12-01T12:17:50.468Z,29.80
2022-12-01T12:20:35.867Z,34.03
2022-12-01T12:23:24.764Z,31.67
2022-12-01T12:26:03.039Z,32.70
2022-12-01T12:28:52.224Z,35.70
2022-12-01T12:31:39.995Z,32.57
2022-12-01T12:34:17.268Z,31.07
2022-12-01T12:36:57.103Z,31.57
2022-12-01T12:39:39.458Z,34.83
2022-12-01T12:42:13.534Z,30.27
2022-12-01T12:44:50.073Z,36.27
2022-12-01T12:47:38.615Z,36.13
2022-12-01T12:50:18.261Z,29.40
2022-12-01T12:52:51.479Z,31.67
2022-12-01T12:55:23.788Z,37.97
2022-12-01T12:57:56.344Z,33.80
2022-12-01T13:00:26.949Z,37.73
2022-12-01T13:02:58.853Z,35.67
2022-12-01T13:05:32.857Z,33.50
2022-12-01T13:08:05.441Z,33.17
2022-12-01T13:10:38.931Z,29.17
2022-12-01T13:13:25.701Z,34.33
2022-12-01T13:15:56.043Z,29.47
2022-12-01T13:18:29.946Z,32.57
2022-12-01T13:20:59.244Z,30.43
2022-12-01T13:23:28.830Z,31.10
2022-12-01T13:25:59.767Z,30.97
2022-12-01T13:28:30.923Z,32.27
2022-12-01T13:31:01.802Z,33.43
2022-12-01T13:33:30.419Z,34.53
2022-12-01T13:36:29.996Z,29.63
2022-12-01T13:38:58.623Z,33.57
2022-12-01T13:41:30.289Z,33.03
2022-12-01T13:44:01.553Z,34.43
2022-12-01T13:46:32.415Z,32.10
2022-12-01T13:49:02.247Z,30.17
2022-12-01T13:52:11.096Z,35.63
2022-12-01T13:54:40.253Z,30.90
2022-12-01T13:57:13.354Z,29.77
2022-12-01T14:00:03.606Z,35.33
2022-12-01T14:02:33.653Z,34.60
2022-12-01T14:05:35.010Z,34.53
2022-12-01T14:08:18.294Z,28.33
2022-12-01T14:10:57.641Z,32.67
2022-12-01T14:13:26.685Z,35.73
2022-12-01T14:15:57.092Z,38.80
2022-12-01T14:18:36.762Z,32.30
2022-12-01T14:21:07.151Z,38.70
2022-12-01T14:23:36.683Z,35.93
2022-12-01T14:26:16.660Z,34.77
2022-12-01T14:29:11.302Z,36.17
2022-12-01T14:32:18.923Z,32.73
2022-12-01T14:34:50.940Z,31.87
2022-12-01T14:37:21.334Z,33.13
2022-12-01T14:39:56.217Z,31.83
2022-12-01T14:42:48.923Z,33.17
2022-12-01T14:45:23.850Z,34.33
2022-12-01T14:47:58.028Z,37.73
2022-12-01T14:50:33.328Z,31.83
2022-12-01T14:53:07.311Z,34.53
2022-12-01T14:55:38.842Z,34.60
2022-12-01T14:58:15.679Z,35.13
2022-12-01T15:00:57.457Z,39.77
2022-12-01T15:03:31.734Z,35.87
2022-12-01T15:05:59.921Z,32.90
2022-12-01T15:09:03.897Z,36.33
2022-12-01T15:11:25.356Z,38.23
2022-12-01T15:13:55.874Z,35.20
2022-12-01T15:16:26.400Z,32.90
2022-12-01T15:18:54.343Z,34.67
2022-12-01T15:21:25.305Z,31.37
2022-12-01T15:23:54.670Z,32.13
2022-12-01T15:26:24.972Z,32.87
2022-12-01T15:29:06.114Z,30.70
2022-12-01T15:31:35.774Z,32.03
2022-12-01T15:34:03.855Z,32.13
2022-12-01T15:36:31.938Z,32.00
2022-12-01T15:39:06.806Z,35.73
2022-12-01T15:41:38.026Z,36.90
2022-12-01T15:44:20.797Z,35.93
2022-12-01T15:46:48.974Z,38.70
2022-12-01T15:49:19.599Z,32.40
2022-12-01T15:51:48.872Z,30.53
2022-12-01T15:54:21.707Z,29.47
2022-12-01T15:56:54.066Z,33.13
2022-12-01T15:59:34.114Z,33.43
2022-12-01T16:02:24.323Z,32.00
2022-12-01T16:05:02.162Z,34.87
2022-12-01T16:08:04.392Z,35.90
2022-12-01T16:10:32.763Z,36.70
2022-12-01T16:13:34.114Z,38.53
2022-12-01T16:16:18.325Z,32.87
2022-12-01T16:18:54.522Z,33.90
2022-12-01T16:21:22.636Z,35.80
2022-12-01T16:23:50.495Z,36.47
2022-12-01T16:26:18.346Z,41.37
2022-12-01T16:28:46.783Z,35.10
2022-12-01T16:31:21.229Z,41.90
2022-12-01T16:33:49.355Z,41.63
2022-12-01T16:36:17.191Z,36.47
2022-12-01T16:38:45.114Z,38.37
2022-12-01T16:41:17.445Z,44.50
2022-12-01T16:43:59.409Z,37.13
2022-12-01T16:46:35.330Z,42.60
2022-12-01T16:49:03.218Z,37.97
2022-12-01T16:51:54.295Z,37.20
2022-12-01T16:54:18.888Z,40.00
2022-12-01T16:56:46.737Z,32.37
2022-12-01T16:59:14.666Z,34.23
2022-12-01T17:01:43.899Z,32.97
2022-12-01T17:04:11.785Z,34.03
2022-12-01T17:06:39.627Z,35.97
2022-12-01T17:09:07.505Z,34.90
2022-12-01T17:11:35.618Z,36.33
2022-12-01T17:14:03.424Z,34.10
2022-12-01T17:16:31.390Z,37.57
2022-12-01T17:19:02.854Z,34.80
2022-12-01T17:21:31.222Z,35.07
2022-12-01T17:23:59.071Z,31.57
2022-12-01T17:26:26.910Z,36.27
2022-12-01T17:28:55.926Z,36.87
2022-12-01T17:31:24.234Z,37.57
2022-12-01T17:33:52.341Z,36.57
2022-12-01T17:36:21.628Z,43.60
2022-12-01T17:38:50.430Z,32.50
2022-12-01T17:41:21.776Z,31.80
2022-12-01T17:43:49.706Z,38.20
2022-12-01T17:46:18.099Z,33.87
2022-12-01T17:48:47.658Z,36.90
2022-12-01T17:51:15.934Z,34.80
2022-12-01T17:53:45.117Z,35.73
2022-12-01T17:56:15.212Z,32.43
2022-12-01T17:58:43.444Z,35.27
2022-12-01T18:01:15.892Z,33.07
2022-12-01T18:03:43.863Z,32.23
2022-12-01T18:06:12.327Z,36.67
2022-12-01T18:08:41.005Z,36.80
2022-12-01T18:11:12.579Z,29.73
2022-12-01T18:13:41.906Z,31.40
2022-12-01T18:16:11.228Z,32.73
2022-12-01T18:18:39.744Z,35.07
2022-12-01T18:21:08.564Z,32.67
2022-12-01T18:23:36.862Z,38.87
2022-12-01T18:26:08.576Z,31.30
2022-12-01T18:28:40.172Z,33.97
2022-12-01T18:31:09.973Z,33.87
2022-12-01T18:33:40.126Z,30.27
2022-12-01T18:36:12.331Z,35.00
2022-12-01T18:38:41.145Z,31.13
2022-12-01T18:41:09.125Z,35.00
2022-12-01T18:43:37.575Z,36.77
2022-12-01T18:46:08.228Z,33.10
2022-12-01T18:48:36.177Z,34.50
2022-12-01T18:51:04.779Z,31.33
2022-12-01T18:53:33.221Z,34.33
2022-12-01T18:56:02.581Z,39.67
2022-12-01T18:58:30.454Z,32.23
2022-12-01T19:00:58.312Z,32.30
2022-12-01T19:03:30.082Z,36.77
2022-12-01T19:05:57.925Z,30.83
2022-12-01T19:08:25.827Z,30.57
2022-12-01T19:11:00.151Z,40.03
2022-12-01T19:13:27.978Z,35.77
2022-12-01T19:15:55.850Z,36.40
2022-12-01T19:18:23.701Z,30.53
2022-12-01T19:20:52.851Z,33.07
2022-12-01T19:23:20.654Z,33.43
2022-12-01T19:25:48.479Z,36.73
2022-12-01T19:28:16.483Z,29.53
2022-12-01T19:30:48.236Z,32.37
2022-12-01T19:33:16.388Z,27.30
2022-12-01T19:35:44.240Z,30.47
2022-12-01T19:38:13.455Z,26.30
2022-12-01T19:40:42.070Z,30.60
2022-12-01T19:43:10.313Z,25.87
2022-12-01T19:45:38.863Z,26.40
2022-12-01T19:48:07.323Z,29.70
2022-12-01T19:50:36.459Z,28.33
2022-12-01T19:53:04.816Z,27.63
2022-12-01T19:55:33.998Z,31.53
2022-12-01T19:58:01.820Z,26.07
2022-12-01T20:00:29.614Z,30.00
2022-12-01T20:02:58.146Z,30.07
2022-12-01T20:05:26.056Z,31.53
2022-12-01T20:07:53.953Z,29.67
2022-12-01T20:10:21.879Z,40.47
2022-12-01T20:12:51.344Z,37.60
2022-12-01T20:15:19.333Z,30.73
2022-12-01T20:17:47.583Z,28.53
2022-12-01T20:20:16.332Z,33.83
2022-12-01T20:22:44.249Z,33.80
2022-12-01T20:25:12.072Z,33.67
2022-12-01T20:27:39.928Z,33.93
2022-12-01T20:30:11.163Z,32.87
2022-12-01T20:32:38.997Z,32.33
2022-12-01T20:35:07.727Z,34.27
2022-12-01T20:37:35.578Z,29.73
2022-12-01T20:40:03.457Z,33.67
2022-12-01T20:42:31.281Z,31.03
2022-12-01T20:44:59.237Z,30.17
2022-12-01T20:47:28.526Z,33.00
2022-12-01T20:49:58.411Z,28.17
2022-12-01T20:52:26.462Z,26.43
2022-12-01T20:54:54.322Z,27.03
2022-12-01T20:57:22.192Z,27.90
2022-12-01T20:59:50.006Z,29.07
2022-12-01T21:02:17.897Z,26.73
2022-12-01T21:04:47.111Z,25.70
2022-12-01T21:07:14.950Z,23.83
2022-12-01T21:09:42.827Z,26.80
2022-12-01T21:12:32.034Z,23.17
2022-12-01T21:15:03.807Z,26.67
2022-12-01T21:17:36.059Z,26.53
2022-12-01T21:20:17.945Z,28.30
2022-12-01T21:22:46.776Z,27.07
2022-12-01T21:25:18.780Z,27.40
2022-12-01T21:27:47.233Z,25.20
2022-12-01T21:30:17.864Z,24.37
2022-12-01T21:32:46.625Z,24.23
2022-12-01T21:35:20.787Z,23.70
2022-12-01T21:37:49.964Z,28.17
2022-12-01T21:40:20.048Z,27.07
2022-12-01T21:42:48.482Z,23.07
2022-12-01T21:45:25.880Z,26.23
2022-12-01T21:47:53.747Z,23.03
2022-12-01T21:50:25.362Z,25.80
2022-12-01T21:52:53.203Z,25.43
2022-12-01T21:55:36.151Z,25.40
2022-12-01T21:58:13.834Z,24.20
2022-12-01T22:00:42.975Z,25.63
2022-12-01T22:03:27.812Z,29.17
2022-12-01T22:06:28.315Z,24.70
2022-12-01T22:08:51.648Z,22.93
2022-12-01T22:11:21.903Z,20.70
2022-12-01T22:13:55.807Z,21.93
2022-12-01T22:16:29.439Z,23.73
2022-12-01T22:18:59.258Z,22.47
2022-12-01T22:21:42.172Z,20.73
2022-12-01T22:24:26.477Z,22.53
2022-12-01T22:27:28.791Z,22.23
2022-12-01T22:30:02.155Z,23.90
2022-12-01T22:32:36.087Z,22.13
2022-12-01T22:35:35.389Z,20.83
2022-12-01T22:38:32.359Z,19.60
2022-12-01T22:41:04.590Z,20.03
2022-12-01T22:43:55.097Z,19.70
2022-12-01T22:46:26.111Z,23.27
2022-12-01T22:48:55.863Z,19.30
2022-12-01T22:51:46.226Z,22.47
2022-12-01T22:54:27.355Z,19.50
2022-12-01T22:57:03.692Z,21.77
2022-12-01T22:59:35.363Z,17.23
2022-12-01T23:02:16.504Z,17.90
2022-12-01T23:04:47.565Z,17.47
2022-12-01T23:07:33.002Z,17.47
2022-12-01T23:10:11.827Z,17.20
2022-12-01T23:12:40.211Z,17.30
2022-12-01T23:15:31.465Z,17.57
2022-12-01T23:18:03.473Z,15.10
2022-12-01T23:20:33.614Z,17.47
2022-12-01T23:23:04.047Z,16.60
2022-12-01T23:25:35.401Z,20.23
2022-12-01T23:28:06.736Z,16.30
2022-12-01T23:30:35.782Z,17.27
2022-12-01T23:33:11.965Z,16.17
2022-12-01T23:35:44.402Z,17.67
2022-12-01T23:38:17.484Z,16.77
2022-12-01T23:40:47.098Z,17.30
2022-12-01T23:43:20.279Z,14.90
2022-12-01T23:45:50.801Z,15.63
2022-12-01T23:48:23.140Z,16.53
2022-12-01T23:50:53.592Z,16.27
2022-12-01T23:53:29.652Z,17.20
2022-12-01T23:56:11.022Z,15.27
2022-12-01T23:58:39.002Z,14.83
